Time;durP1;ratioP1;P1;durP2;ratioP2;P2;SDS_P1;SDS_P2;PMS_P1;PMS_P2;Temp;Humidity;BMP_temperature;BMP_pressure;BME280_temperature;BME280_humidity;BME280_pressure;Samples;Min_cycle;Max_cycle;Signal;HPM_P1;HPM_P2
2022/03/21 00:01:21;;;;;;;43.63;20.58;;;1.60;99.90;;;;;;5112198;28;20023;-74
2022/03/21 00:03:46;;;;;;;41.03;17.92;;;1.60;99.90;;;;;;5116686;28;20102;-74
2022/03/21 00:06:12;;;;;;;44.92;19.38;;;1.60;99.90;;;;;;5117456;28;20070;-74
2022/03/21 00:08:38;;;;;;;49.03;20.83;;;1.60;99.90;;;;;;5115899;28;20027;-73
2022/03/21 00:11:04;;;;;;;47.25;21.27;;;1.60;99.90;;;;;;5115897;28;20096;-74
2022/03/21 00:13:29;;;;;;;48.40;19.35;;;1.50;99.90;;;;;;5117065;28;20030;-73
2022/03/21 00:15:56;;;;;;;49.88;21.20;;;1.60;99.90;;;;;;5115774;28;20469;-73
2022/03/21 00:18:23;;;;;;;55.15;21.85;;;1.50;99.90;;;;;;5115600;28;20027;-73
2022/03/21 00:20:56;;;;;;;49.60;21.38;;;1.50;99.90;;;;;;5117026;28;20028;-75
2022/03/21 00:23:23;;;;;;;50.00;20.02;;;1.30;99.90;;;;;;5117272;28;20016;-73
2022/03/21 00:25:53;;;;;;;51.65;21.10;;;1.40;99.90;;;;;;5116983;28;20127;-75
2022/03/21 00:28:19;;;;;;;55.45;21.58;;;1.40;99.90;;;;;;5117327;28;20362;-75
2022/03/21 00:30:46;;;;;;;53.85;23.40;;;1.40;99.90;;;;;;5116733;28;20034;-75
2022/03/21 00:33:13;;;;;;;53.17;21.95;;;1.40;99.90;;;;;;5116935;28;20016;-74
2022/03/21 00:35:42;;;;;;;50.72;21.08;;;1.40;99.90;;;;;;5116584;28;20491;-74
2022/03/21 00:38:14;;;;;;;54.70;23.23;;;1.30;99.90;;;;;;5115229;28;20109;-74
2022/03/21 00:40:39;;;;;;;49.88;21.58;;;1.30;99.90;;;;;;5116507;27;20020;-75
2022/03/21 00:43:07;;;;;;;48.60;21.33;;;1.30;99.90;;;;;;5116634;28;20132;-75
2022/03/21 00:45:32;;;;;;;49.80;20.00;;;1.20;99.90;;;;;;5117057;28;20090;-75
2022/03/21 00:47:58;;;;;;;43.15;19.70;;;1.10;99.90;;;;;;5115161;28;20019;-75
2022/03/21 00:50:25;;;;;;;47.20;19.88;;;1.10;99.90;;;;;;5116282;28;20024;-75
2022/03/21 00:52:53;;;;;;;45.28;19.20;;;1.00;99.90;;;;;;5115039;28;20016;-75
2022/03/21 00:55:21;;;;;;;30.10;13.77;;;0.90;99.90;;;;;;5115067;28;20032;-75
2022/03/21 00:57:47;;;;;;;42.15;18.35;;;0.90;99.90;;;;;;5115031;28;20420;-75
2022/03/21 01:00:17;;;;;;;43.55;19.17;;;0.90;99.90;;;;;;5114627;28;20019;-75
2022/03/21 01:02:43;;;;;;;46.15;19.10;;;0.80;99.90;;;;;;5116086;27;20051;-75
2022/03/21 01:05:10;;;;;;;45.97;18.48;;;0.80;99.90;;;;;;5115966;28;20389;-75
2022/03/21 01:07:37;;;;;;;43.75;18.00;;;0.80;99.90;;;;;;5113896;28;20397;-74
2022/03/21 01:10:05;;;;;;;41.88;18.42;;;0.80;99.90;;;;;;5094084;28;20404;-76
2022/03/21 01:12:30;;;;;;;42.70;18.83;;;0.80;99.90;;;;;;5095580;28;20024;-76
2022/03/21 01:14:56;;;;;;;41.30;18.42;;;0.80;99.90;;;;;;5095903;28;20064;-77
2022/03/21 01:17:22;;;;;;;48.83;19.27;;;0.80;99.90;;;;;;5097280;28;20051;-75
2022/03/21 01:19:48;;;;;;;41.58;17.88;;;0.80;99.90;;;;;;5094321;28;20016;-77
2022/03/21 01:22:13;;;;;;;47.55;19.50;;;0.80;99.90;;;;;;5095681;28;20095;-76
2022/03/21 01:24:39;;;;;;;43.47;18.33;;;0.80;99.90;;;;;;5093834;28;20363;-76
2022/03/21 01:27:05;;;;;;;40.50;18.88;;;0.80;99.90;;;;;;5095228;28;20465;-76
2022/03/21 01:29:32;;;;;;;46.88;18.80;;;0.80;99.90;;;;;;5093283;28;20081;-76
2022/03/21 01:31:57;;;;;;;45.47;19.17;;;0.80;99.90;;;;;;5095383;28;20489;-75
2022/03/21 01:34:23;;;;;;;42.90;18.60;;;0.80;99.90;;;;;;5093692;28;20081;-76
2022/03/21 01:36:49;;;;;;;42.63;18.92;;;0.80;99.90;;;;;;5094351;28;20065;-77
2022/03/21 01:39:14;;;;;;;45.05;18.45;;;0.80;99.90;;;;;;5095170;28;20020;-76
2022/03/21 01:41:40;;;;;;;45.58;18.55;;;0.80;99.90;;;;;;5096195;28;20012;-76
2022/03/21 01:44:08;;;;;;;43.92;18.02;;;0.80;99.90;;;;;;5095320;28;20071;-77
2022/03/21 01:46:34;;;;;;;47.55;20.17;;;0.80;99.90;;;;;;5094854;28;20020;-75
2022/03/21 01:49:01;;;;;;;43.25;18.08;;;0.80;99.90;;;;;;5094898;28;20111;-76
2022/03/21 01:51:27;;;;;;;44.58;17.67;;;0.80;99.90;;;;;;5094779;28;20051;-77
2022/03/21 01:56:46;;;;;;;43.17;19.15;;;0.80;99.90;;;;;;5095216;28;20041;-77
2022/03/21 01:59:13;;;;;;;42.17;17.58;;;0.80;99.90;;;;;;5095005;28;20024;-77
2022/03/21 02:01:40;;;;;;;48.15;20.13;;;0.80;99.90;;;;;;5093370;28;20031;-76
2022/03/21 02:04:07;;;;;;;45.67;19.20;;;0.80;99.90;;;;;;5093449;28;20035;-76
2022/03/21 02:06:32;;;;;;;39.40;18.17;;;0.80;99.90;;;;;;5094544;28;20024;-76
2022/03/21 02:09:00;;;;;;;49.75;19.35;;;0.80;99.90;;;;;;5094285;28;20125;-76
2022/03/21 02:11:27;;;;;;;50.05;18.88;;;0.70;99.90;;;;;;5093197;28;20024;-76
2022/03/21 02:14:00;;;;;;;42.72;17.70;;;0.60;99.90;;;;;;5093831;28;20032;-77
2022/03/21 02:16:28;;;;;;;43.63;18.27;;;0.60;99.90;;;;;;5094546;28;20024;-76
2022/03/21 02:18:55;;;;;;;44.13;18.95;;;0.60;99.90;;;;;;5092929;28;20470;-77
2022/03/21 02:21:34;;;;;;;43.13;18.20;;;0.50;99.90;;;;;;5094129;28;20024;-73
2022/03/21 02:24:14;;;;;;;42.13;18.85;;;0.50;99.90;;;;;;5094173;28;20027;-74
2022/03/21 02:26:40;;;;;;;42.50;18.02;;;0.50;99.90;;;;;;5093693;28;20067;-74
2022/03/21 02:29:08;;;;;;;47.63;18.05;;;0.40;99.90;;;;;;5094104;28;20103;-75
2022/03/21 02:31:35;;;;;;;49.38;18.65;;;0.40;99.90;;;;;;5094028;28;20147;-74
2022/03/21 02:34:01;;;;;;;44.95;18.17;;;0.40;99.90;;;;;;5093953;28;20028;-74
2022/03/21 02:36:27;;;;;;;47.50;18.33;;;0.40;99.90;;;;;;5094253;28;20039;-75
2022/03/21 02:38:56;;;;;;;43.22;18.45;;;0.50;99.90;;;;;;5094033;28;20028;-74
2022/03/21 02:41:22;;;;;;;44.85;18.60;;;0.60;99.90;;;;;;5092681;28;20093;-74
2022/03/21 02:43:56;;;;;;;41.97;18.35;;;0.60;99.90;;;;;;5094089;28;20016;-76
2022/03/21 02:46:22;;;;;;;42.83;17.63;;;0.60;99.90;;;;;;5094252;28;20092;-74
2022/03/21 02:48:48;;;;;;;44.25;19.20;;;0.60;99.90;;;;;;5092744;28;20525;-76
2022/03/21 02:51:15;;;;;;;53.38;20.60;;;0.60;99.90;;;;;;5094006;28;20027;-74
2022/03/21 02:53:41;;;;;;;46.25;18.65;;;0.60;99.90;;;;;;5092430;28;20081;-75
2022/03/21 02:56:07;;;;;;;50.22;19.98;;;0.60;99.90;;;;;;5092361;28;20024;-74
2022/03/21 02:58:33;;;;;;;45.35;18.20;;;0.60;99.90;;;;;;5093931;28;20024;-76
2022/03/21 03:01:10;;;;;;;44.00;18.65;;;0.60;99.90;;;;;;5092394;28;20023;-75
2022/03/21 03:03:36;;;;;;;46.25;18.73;;;0.60;99.90;;;;;;5094421;28;20113;-76
2022/03/21 03:06:02;;;;;;;43.75;18.70;;;0.60;99.90;;;;;;5093560;28;20424;-76
2022/03/21 03:08:28;;;;;;;46.97;19.05;;;0.60;99.90;;;;;;5093531;28;20028;-74
2022/03/21 03:10:54;;;;;;;44.10;18.83;;;0.60;99.90;;;;;;5092219;28;20031;-75
2022/03/21 03:13:19;;;;;;;48.13;18.67;;;0.60;99.90;;;;;;5092309;28;20485;-75
2022/03/21 03:15:47;;;;;;;42.90;17.55;;;0.60;99.90;;;;;;5093666;28;20034;-76
2022/03/21 03:18:13;;;;;;;43.20;17.48;;;0.70;99.90;;;;;;5093414;28;20020;-74
2022/03/21 03:20:42;;;;;;;41.47;17.88;;;0.60;99.90;;;;;;5092113;28;20028;-76
2022/03/21 03:23:08;;;;;;;45.38;19.05;;;0.70;99.90;;;;;;5093378;28;20038;-75
2022/03/21 03:25:35;;;;;;;50.10;18.60;;;0.70;99.90;;;;;;5092308;28;20016;-74
2022/03/21 03:28:00;;;;;;;45.60;18.35;;;0.80;99.90;;;;;;5093230;28;20377;-76
2022/03/21 03:30:26;;;;;;;49.78;18.70;;;0.80;99.90;;;;;;5093988;28;20024;-74
2022/03/21 03:32:52;;;;;;;48.90;18.42;;;0.80;99.90;;;;;;5093509;28;20031;-75
2022/03/21 03:35:18;;;;;;;50.83;19.38;;;0.70;99.90;;;;;;5091973;28;20020;-76
2022/03/21 03:37:43;;;;;;;48.40;19.60;;;0.70;99.90;;;;;;5095160;28;20095;-76
2022/03/21 03:40:09;;;;;;;47.67;20.02;;;0.80;99.90;;;;;;5097236;28;20024;-76
2022/03/21 03:42:35;;;;;;;46.80;19.42;;;0.80;99.90;;;;;;5097220;28;20028;-76
2022/03/21 03:45:00;;;;;;;49.75;21.00;;;0.80;99.90;;;;;;5097757;28;20027;-74
2022/03/21 03:47:26;;;;;;;47.67;18.92;;;0.80;99.90;;;;;;5097200;28;20035;-74
2022/03/21 03:49:51;;;;;;;49.00;21.10;;;0.80;99.90;;;;;;5097347;28;20378;-75
2022/03/21 03:52:17;;;;;;;44.15;19.00;;;0.80;99.90;;;;;;5097648;28;20099;-74
2022/03/21 03:54:42;;;;;;;51.33;20.13;;;0.90;99.90;;;;;;5097229;28;20031;-74
2022/03/21 03:57:10;;;;;;;46.97;19.27;;;0.90;99.90;;;;;;5095693;28;20020;-74
2022/03/21 03:59:36;;;;;;;50.65;20.65;;;0.80;99.90;;;;;;5097002;28;20043;-74
2022/03/21 04:02:02;;;;;;;44.70;20.63;;;0.80;99.90;;;;;;5097478;28;20016;-74
2022/03/21 04:04:27;;;;;;;48.15;19.80;;;0.80;99.90;;;;;;5097083;28;20027;-73
2022/03/21 04:06:53;;;;;;;50.42;19.48;;;0.80;99.90;;;;;;5096709;28;20028;-74
2022/03/21 04:09:18;;;;;;;45.55;18.45;;;0.80;99.90;;;;;;5096719;28;20032;-75
2022/03/21 04:11:44;;;;;;;51.78;20.02;;;0.70;99.90;;;;;;5095477;28;20020;-74
2022/03/21 04:14:10;;;;;;;49.13;20.65;;;0.70;99.90;;;;;;5095388;28;20022;-74
2022/03/21 04:16:36;;;;;;;39.78;17.73;;;0.70;99.90;;;;;;5096731;28;20044;-74
2022/03/21 04:19:02;;;;;;;47.45;19.45;;;0.70;99.90;;;;;;5096779;28;20148;-74
2022/03/21 04:21:28;;;;;;;41.75;18.40;;;0.70;99.90;;;;;;5096374;28;20016;-72
2022/03/21 04:23:56;;;;;;;45.85;18.45;;;0.70;99.90;;;;;;5096796;28;20020;-75
2022/03/21 04:26:21;;;;;;;39.20;15.43;;;0.70;99.90;;;;;;5095140;28;20103;-73
2022/03/21 04:28:49;;;;;;;47.65;19.60;;;0.70;99.90;;;;;;5096544;28;20533;-73
2022/03/21 04:31:14;;;;;;;47.20;20.15;;;0.70;99.90;;;;;;5096904;28;20028;-75
2022/03/21 04:33:40;;;;;;;46.42;19.70;;;0.70;99.90;;;;;;5096538;28;20020;-75
2022/03/21 04:36:05;;;;;;;43.65;18.48;;;0.70;99.90;;;;;;5096227;28;20036;-75
2022/03/21 04:38:31;;;;;;;50.65;20.50;;;0.70;99.90;;;;;;5096417;28;20020;-74
2022/03/21 04:40:56;;;;;;;46.13;18.75;;;0.70;99.90;;;;;;5096060;28;20027;-73
2022/03/21 04:43:22;;;;;;;50.08;19.40;;;0.80;99.90;;;;;;5096316;28;20023;-75
2022/03/21 04:45:49;;;;;;;45.92;19.35;;;0.80;99.90;;;;;;5094677;28;20035;-73
2022/03/21 04:48:15;;;;;;;52.17;18.52;;;0.80;99.90;;;;;;5094269;28;20016;-75
2022/03/21 04:50:41;;;;;;;51.05;20.40;;;0.70;99.90;;;;;;5095911;28;20059;-73
2022/03/21 04:53:07;;;;;;;46.20;19.40;;;0.70;99.90;;;;;;5094997;28;20485;-76
2022/03/21 04:55:32;;;;;;;46.95;19.25;;;0.70;99.90;;;;;;5096468;28;20036;-76
2022/03/21 04:57:59;;;;;;;48.75;19.80;;;0.70;99.90;;;;;;5094416;28;20457;-76
2022/03/21 05:00:25;;;;;;;49.47;19.23;;;0.70;99.90;;;;;;5095688;28;20063;-74
2022/03/21 05:02:51;;;;;;;47.30;18.30;;;0.70;99.90;;;;;;5095596;28;20095;-75
2022/03/21 05:05:16;;;;;;;48.53;19.88;;;0.60;99.90;;;;;;5095629;28;20485;-75
2022/03/21 05:07:45;;;;;;;42.83;18.77;;;0.60;99.90;;;;;;5095555;28;20020;-74
2022/03/21 05:10:12;;;;;;;44.85;18.23;;;0.50;99.90;;;;;;5094957;28;20032;-75
2022/03/21 05:12:38;;;;;;;52.55;19.38;;;0.50;99.90;;;;;;5094174;28;20032;-75
2022/03/21 05:15:07;;;;;;;47.45;19.42;;;0.40;99.90;;;;;;5095743;28;20561;-75
2022/03/21 05:17:36;;;;;;;50.65;19.42;;;0.40;99.90;;;;;;5095470;28;20031;-76
2022/03/21 05:20:09;;;;;;;53.30;20.80;;;0.40;99.90;;;;;;5095412;28;20016;-75
2022/03/21 05:22:35;;;;;;;43.47;18.15;;;0.40;99.90;;;;;;5095714;28;20031;-75
2022/03/21 05:36:00;;;;;;;50.58;18.65;;;0.50;99.90;;;;;;5095924;28;20097;-76
2022/03/21 05:38:27;;;;;;;46.10;18.33;;;0.50;99.90;;;;;;5095271;28;20032;-76
2022/03/21 05:40:59;;;;;;;44.35;17.58;;;0.50;99.90;;;;;;5094793;28;20028;-76
2022/03/21 05:43:29;;;;;;;45.60;18.75;;;0.50;99.90;;;;;;5093741;28;20025;-75
2022/03/21 05:45:55;;;;;;;41.92;17.13;;;0.50;99.90;;;;;;5095048;28;20019;-75
2022/03/21 05:51:06;;;;;;;45.17;16.75;;;0.50;99.90;;;;;;5095545;28;20093;-75
2022/03/21 05:53:32;;;;;;;48.03;18.88;;;0.50;99.90;;;;;;5094698;28;20028;-75
2022/03/21 05:56:00;;;;;;;49.13;18.98;;;0.40;99.90;;;;;;5094577;28;20023;-75
2022/03/21 05:58:26;;;;;;;41.83;18.00;;;0.50;99.90;;;;;;5094445;28;20028;-76
2022/03/21 06:00:52;;;;;;;47.88;17.25;;;0.50;99.90;;;;;;5093616;28;20028;-75
2022/03/21 06:03:17;;;;;;;47.80;18.55;;;0.50;99.90;;;;;;5094452;28;20024;-75
2022/03/21 06:05:44;;;;;;;46.65;19.00;;;0.50;99.90;;;;;;5094835;28;20114;-75
2022/03/21 06:08:10;;;;;;;49.03;18.52;;;0.60;99.90;;;;;;5094195;28;20088;-74
2022/03/21 06:10:38;;;;;;;45.60;18.60;;;0.80;99.90;;;;;;5094461;28;20435;-75
2022/03/21 06:13:08;;;;;;;52.35;17.63;;;0.80;99.90;;;;;;5092983;28;20024;-75
2022/03/21 06:15:37;;;;;;;45.38;18.08;;;0.90;99.90;;;;;;5092949;28;20016;-76
2022/03/21 06:18:11;;;;;;;46.83;18.08;;;0.90;99.90;;;;;;5094135;28;20024;-75
2022/03/21 06:20:39;;;;;;;49.85;18.45;;;1.00;99.90;;;;;;5094160;28;20417;-76
2022/03/21 06:23:05;;;;;;;45.67;18.77;;;1.10;99.90;;;;;;5094622;28;20380;-75
2022/03/21 06:25:31;;;;;;;43.60;18.73;;;1.20;99.90;;;;;;5094358;28;20103;-75
2022/03/21 06:27:56;;;;;;;48.13;20.58;;;1.30;99.90;;;;;;5092721;28;20030;-75
2022/03/21 06:30:22;;;;;;;46.22;18.95;;;1.40;99.90;;;;;;5094004;28;20127;-76
2022/03/21 06:32:47;;;;;;;45.90;18.10;;;1.50;99.90;;;;;;5093881;28;20039;-75
2022/03/21 06:35:13;;;;;;;44.13;17.30;;;1.60;99.90;;;;;;5092893;28;20028;-74
2022/03/21 06:37:40;;;;;;;41.33;17.85;;;1.70;99.90;;;;;;5093925;28;20504;-74
2022/03/21 06:40:07;;;;;;;40.17;17.85;;;1.90;99.90;;;;;;5092478;28;20028;-76
2022/03/21 06:42:33;;;;;;;45.35;19.05;;;2.00;99.90;;;;;;5093761;28;20012;-75
2022/03/21 06:44:58;;;;;;;45.95;17.90;;;2.10;99.90;;;;;;5092439;28;20469;-74
2022/03/21 06:47:24;;;;;;;43.05;18.38;;;2.20;99.90;;;;;;5093722;28;20073;-75
2022/03/21 06:49:50;;;;;;;40.33;17.00;;;2.40;99.90;;;;;;5093790;28;20024;-76
2022/03/21 06:52:18;;;;;;;42.13;16.55;;;2.60;99.90;;;;;;5093640;28;20027;-75
2022/03/21 06:54:48;;;;;;;42.47;17.00;;;2.70;99.90;;;;;;5093696;28;20031;-75
2022/03/21 06:57:16;;;;;;;40.35;15.65;;;2.80;99.90;;;;;;5092261;28;20016;-75
2022/03/21 06:59:42;;;;;;;40.58;16.95;;;3.00;99.90;;;;;;5092103;28;20032;-75
2022/03/21 07:02:07;;;;;;;39.63;16.33;;;3.10;99.90;;;;;;5092286;28;20043;-75
2022/03/21 07:04:33;;;;;;;39.67;17.20;;;3.20;99.90;;;;;;5093772;28;20484;-75
2022/03/21 07:06:59;;;;;;;41.50;15.88;;;3.40;99.90;;;;;;5092139;28;20150;-75
2022/03/21 07:09:25;;;;;;;40.97;15.73;;;3.50;99.90;;;;;;5093265;28;20085;-75
2022/03/21 07:11:51;;;;;;;39.90;14.80;;;3.60;99.90;;;;;;5092091;28;20028;-75
2022/03/21 07:14:18;;;;;;;39.60;15.05;;;3.80;99.90;;;;;;5093557;28;20020;-75
2022/03/21 07:16:43;;;;;;;34.88;14.55;;;4.40;99.90;;;;;;5093358;28;20055;-75
2022/03/21 07:19:09;;;;;;;38.53;14.30;;;4.00;99.90;;;;;;5093588;28;20031;-75
2022/03/21 07:21:35;;;;;;;31.52;13.95;;;4.20;99.90;;;;;;5093269;28;20473;-75
2022/03/21 07:24:00;;;;;;;32.00;13.50;;;4.30;99.90;;;;;;5091227;28;20021;-75
2022/03/21 07:26:26;;;;;;;33.30;12.98;;;4.50;99.90;;;;;;5091820;28;20054;-75
2022/03/21 07:28:51;;;;;;;32.17;14.38;;;4.60;99.90;;;;;;5091993;28;20085;-75
2022/03/21 07:31:17;;;;;;;37.95;14.25;;;4.70;99.90;;;;;;5093264;28;20522;-75
2022/03/21 07:33:43;;;;;;;30.88;12.68;;;4.90;99.90;;;;;;5093331;28;20393;-75
2022/03/21 07:36:09;;;;;;;33.10;12.98;;;5.00;99.90;;;;;;5093523;28;20024;-75
2022/03/21 07:38:35;;;;;;;33.63;13.20;;;5.10;99.90;;;;;;5092342;28;20128;-75
2022/03/21 07:41:02;;;;;;;27.30;13.23;;;5.20;99.90;;;;;;5093163;28;20056;-75
2022/03/21 07:43:28;;;;;;;30.75;11.57;;;5.40;99.90;;;;;;5093210;28;20098;-75
2022/03/21 07:48:39;;;;;;;29.25;11.13;;;5.60;99.90;;;;;;5093814;28;20109;-75
2022/03/21 07:51:05;;;;;;;31.23;11.48;;;5.80;99.90;;;;;;5093792;28;20529;-75
2022/03/21 07:53:33;;;;;;;30.17;10.88;;;6.00;99.90;;;;;;5092128;28;20112;-75
2022/03/21 07:56:00;;;;;;;22.23;8.93;;;6.10;99.90;;;;;;5091971;28;20024;-75
2022/03/21 07:58:29;;;;;;;23.38;9.90;;;6.20;99.90;;;;;;5093506;28;20032;-75
2022/03/21 08:00:56;;;;;;;27.33;10.35;;;6.30;99.90;;;;;;5091767;28;20115;-75
2022/03/21 08:03:22;;;;;;;22.30;9.48;;;6.40;99.90;;;;;;5093208;28;20035;-75
2022/03/21 08:05:48;;;;;;;22.40;9.15;;;6.60;99.90;;;;;;5091896;28;20078;-75
2022/03/21 08:08:14;;;;;;;23.25;9.57;;;6.70;99.90;;;;;;5091625;28;20028;-75
2022/03/21 08:10:40;;;;;;;22.15;9.90;;;6.80;99.90;;;;;;5093100;28;20027;-75
2022/03/21 08:13:06;;;;;;;24.75;10.05;;;6.90;99.90;;;;;;5092988;28;20032;-75
2022/03/21 08:15:35;;;;;;;20.30;9.18;;;7.10;99.90;;;;;;5092999;28;20020;-75
2022/03/21 08:18:03;;;;;;;;;;;7.20;99.90;;;;;;5092009;28;20118;-75
2022/03/21 08:20:33;;;;;;;22.67;8.93;;;7.30;99.90;;;;;;5091683;28;19929;-75
2022/03/21 08:23:00;;;;;;;21.35;8.98;;;7.40;99.90;;;;;;5092006;28;20024;-75
2022/03/21 08:25:27;;;;;;;21.40;9.52;;;7.50;99.90;;;;;;5096619;28;20085;-75
2022/03/21 08:27:53;;;;;;;22.65;8.77;;;7.70;99.90;;;;;;5096643;28;20012;-75
2022/03/21 08:30:19;;;;;;;19.27;8.23;;;7.80;99.90;;;;;;5096760;28;20028;-75
2022/03/21 08:32:46;;;;;;;24.67;9.43;;;7.90;99.90;;;;;;5095316;28;20121;-75
2022/03/21 08:35:12;;;;;;;25.13;8.90;;;8.00;99.90;;;;;;5095026;28;20389;-75
2022/03/21 08:37:37;;;;;;;21.33;8.95;;;8.10;99.90;;;;;;5096283;28;20024;-75
2022/03/21 08:40:04;;;;;;;18.45;8.98;;;8.30;99.90;;;;;;5096081;28;20549;-76
2022/03/21 08:42:30;;;;;;;20.65;7.60;;;8.40;99.90;;;;;;5094876;28;20056;-75
2022/03/21 08:44:56;;;;;;;21.63;8.45;;;8.50;99.90;;;;;;5096465;28;20071;-75
2022/03/21 08:47:22;;;;;;;19.85;8.98;;;8.70;99.90;;;;;;5096455;28;20038;-74
2022/03/21 08:49:48;;;;;;;22.52;8.57;;;8.90;99.90;;;;;;5096147;28;20020;-74
2022/03/21 08:52:13;;;;;;;22.20;8.60;;;9.00;99.90;;;;;;5096468;28;20487;-74
2022/03/21 08:54:42;;;;;;;23.27;8.85;;;9.10;99.90;;;;;;5096357;28;20020;-75
2022/03/21 08:57:08;;;;;;;15.18;7.25;;;9.20;99.90;;;;;;5096159;28;20065;-75
2022/03/21 08:59:33;;;;;;;23.23;9.32;;;9.40;99.90;;;;;;5095812;28;20020;-75
2022/03/21 09:01:59;;;;;;;18.45;8.50;;;9.50;99.90;;;;;;5096420;28;20052;-75
2022/03/21 09:04:25;;;;;;;18.08;8.45;;;9.70;99.90;;;;;;5095813;28;20059;-75
2022/03/21 09:06:50;;;;;;;20.00;7.90;;;9.80;99.90;;;;;;5095665;28;20028;-75
2022/03/21 09:09:18;;;;;;;27.83;9.15;;;10.00;99.90;;;;;;5095503;28;20052;-75
2022/03/21 09:11:44;;;;;;;22.50;8.90;;;10.10;99.90;;;;;;5095543;28;20020;-75
2022/03/21 09:14:09;;;;;;;17.55;7.18;;;10.20;99.90;;;;;;5095583;28;20115;-75
2022/03/21 09:16:38;;;;;;;21.60;8.45;;;10.40;99.90;;;;;;5096088;28;20024;-75
2022/03/21 09:19:05;;;;;;;20.77;7.88;;;10.50;99.50;;;;;;5095307;28;20116;-74
2022/03/21 09:21:30;;;;;;;17.80;7.88;;;10.60;97.50;;;;;;5095357;28;20031;-73
2022/03/21 09:23:56;;;;;;;18.02;9.07;;;10.70;95.20;;;;;;5095535;28;20451;-73
2022/03/21 09:26:22;;;;;;;22.23;8.85;;;10.80;93.80;;;;;;5093993;28;20074;-74
2022/03/21 09:28:48;;;;;;;16.85;7.72;;;10.80;93.70;;;;;;5094281;28;20020;-73
2022/03/21 09:31:15;;;;;;;21.17;8.23;;;11.00;92.80;;;;;;5095267;28;20032;-74
2022/03/21 09:33:41;;;;;;;19.25;7.88;;;11.00;91.40;;;;;;5095230;28;20028;-74
2022/03/21 09:36:08;;;;;;;21.08;8.13;;;11.20;91.70;;;;;;5094329;28;20381;-74
2022/03/21 09:38:35;;;;;;;17.95;7.30;;;11.20;92.20;;;;;;5094879;28;20016;-74
2022/03/21 09:41:03;;;;;;;17.13;7.10;;;11.40;92.20;;;;;;5093876;28;20059;-74
2022/03/21 09:43:29;;;;;;;19.37;8.07;;;11.50;91.70;;;;;;5093754;28;20150;-74
2022/03/21 09:45:57;;;;;;;18.70;7.68;;;11.60;88.90;;;;;;5095104;28;20099;-74
2022/03/21 09:48:25;;;;;;;19.73;7.90;;;11.70;85.80;;;;;;5093493;28;20020;-74
2022/03/21 09:50:52;;;;;;;19.50;7.43;;;11.80;83.70;;;;;;5093369;28;20386;-74
2022/03/21 09:53:19;;;;;;;17.30;7.88;;;12.00;82.30;;;;;;5094631;28;20024;-74
2022/03/21 09:55:45;;;;;;;17.27;6.88;;;12.10;78.90;;;;;;5094471;28;20024;-74
2022/03/21 09:58:12;;;;;;;24.75;8.25;;;12.10;76.70;;;;;;5094480;28;20024;-74
2022/03/21 10:00:42;;;;;;;20.90;7.57;;;12.30;74.40;;;;;;5094935;28;20055;-74
2022/03/21 10:03:08;;;;;;;19.20;8.07;;;12.40;74.80;;;;;;5095030;28;20457;-74
2022/03/21 10:05:35;;;;;;;19.42;8.23;;;12.50;67.40;;;;;;5094457;28;20020;-74
2022/03/21 10:08:27;;;;;;;17.98;6.57;;;12.50;69.00;;;;;;5094660;28;20031;-75
2022/03/21 10:10:53;;;;;;;20.90;7.40;;;12.50;67.10;;;;;;5094374;28;20489;-74
2022/03/21 10:13:20;;;;;;;21.20;7.93;;;12.60;68.50;;;;;;5094305;28;20031;-74
2022/03/21 10:15:47;;;;;;;18.13;7.90;;;12.70;67.30;;;;;;5092939;28;20055;-74
2022/03/21 10:18:12;;;;;;;17.27;7.07;;;12.80;67.90;;;;;;5094078;28;20024;-74
2022/03/21 10:20:40;;;;;;;15.85;6.78;;;12.90;63.40;;;;;;5094129;28;20035;-74
2022/03/21 10:23:23;;;;;;;15.00;6.28;;;13.00;62.20;;;;;;5092860;28;20023;-74
2022/03/21 10:25:49;;;;;;;16.80;6.32;;;13.20;60.30;;;;;;5093997;28;20073;-74
2022/03/21 10:28:39;;;;;;;15.35;6.88;;;13.20;59.10;;;;;;5094144;28;20030;-74
2022/03/21 10:31:05;;;;;;;16.48;5.93;;;13.30;60.10;;;;;;5093973;28;20541;-74
2022/03/21 10:33:31;;;;;;;17.17;6.05;;;13.50;59.10;;;;;;5092634;28;20055;-74
2022/03/21 10:36:04;;;;;;;17.23;5.97;;;13.60;54.00;;;;;;5093879;28;20089;-74
2022/03/21 10:38:32;;;;;;;14.60;5.65;;;13.60;56.10;;;;;;5094967;28;20051;-74
2022/03/21 10:41:04;;;;;;;17.95;6.65;;;13.70;55.50;;;;;;5093829;28;20028;-74
2022/03/21 10:43:30;;;;;;;14.95;6.22;;;13.70;54.70;;;;;;5093199;28;20358;-74
2022/03/21 10:45:56;;;;;;;17.13;7.00;;;13.80;55.70;;;;;;5093404;28;20022;-74
2022/03/21 10:48:32;;;;;;;11.48;5.53;;;14.00;55.90;;;;;;5093550;28;20016;-74
2022/03/21 10:51:00;;;;;;;13.23;5.50;;;14.10;51.60;;;;;;5093622;28;20389;-74
2022/03/21 10:53:38;;;;;;;12.48;4.68;;;14.20;50.60;;;;;;5092312;28;20016;-74
2022/03/21 10:56:10;;;;;;;14.38;5.28;;;14.20;50.10;;;;;;5093660;28;20016;-74
2022/03/21 10:58:44;;;;;;;15.35;5.72;;;14.40;51.40;;;;;;5092213;28;20027;-74
2022/03/21 11:01:26;;;;;;;12.93;4.53;;;14.40;51.10;;;;;;5093550;28;20095;-74
2022/03/21 11:03:56;;;;;;;15.32;5.30;;;14.50;50.90;;;;;;5092263;28;20069;-74
2022/03/21 11:06:22;;;;;;;13.15;5.22;;;14.70;51.60;;;;;;5092253;28;20103;-74
2022/03/21 11:08:51;;;;;;;10.95;5.00;;;14.80;50.10;;;;;;5092078;28;20032;-74
2022/03/21 11:11:17;;;;;;;12.88;4.65;;;15.10;49.30;;;;;;5092262;28;20165;-74
2022/03/21 11:13:44;;;;;;;8.43;3.80;;;15.20;48.20;;;;;;5093449;28;20028;-74
2022/03/21 11:16:10;;;;;;;12.75;5.78;;;15.30;47.70;;;;;;5093909;28;20031;-74
2022/03/21 11:18:35;;;;;;;10.95;4.80;;;15.30;48.50;;;;;;5093564;28;20440;-74
2022/03/21 11:21:02;;;;;;;13.13;5.10;;;15.50;50.60;;;;;;5091901;28;20093;-75
2022/03/21 11:23:28;;;;;;;12.05;4.82;;;15.60;49.60;;;;;;5092017;28;20054;-74
2022/03/21 11:26:19;;;;;;;16.17;4.78;;;15.80;49.90;;;;;;5093322;28;20027;-74
2022/03/21 11:29:10;;;;;;;9.27;4.50;;;15.90;50.00;;;;;;5093526;28;20385;-74
2022/03/21 11:31:59;;;;;;;10.07;4.40;;;16.10;48.10;;;;;;5093699;28;20026;-73
2022/03/21 11:34:40;;;;;;;;;;;16.10;49.50;;;;;;5092019;28;20544;-74
2022/03/21 11:37:05;;;;;;;12.93;4.75;;;16.20;49.10;;;;;;5091856;28;19904;-74
2022/03/21 11:39:32;;;;;;;12.13;5.22;;;16.30;49.80;;;;;;5091714;28;20016;-74
2022/03/21 11:42:08;;;;;;;11.80;4.97;;;16.20;49.80;;;;;;5092956;28;20031;-74
2022/03/21 11:44:35;;;;;;;15.18;4.72;;;16.30;50.20;;;;;;5093289;28;20092;-74
2022/03/21 11:47:24;;;;;;;15.85;5.55;;;16.50;50.80;;;;;;5091647;28;20020;-74
2022/03/21 11:49:51;;;;;;;12.15;5.00;;;16.60;50.80;;;;;;5092900;28;20128;-74
2022/03/21 11:52:17;;;;;;;13.98;5.20;;;16.80;51.40;;;;;;5091679;28;20024;-74
2022/03/21 11:54:44;;;;;;;12.63;5.40;;;16.90;51.30;;;;;;5091666;28;20033;-74
2022/03/21 11:57:10;;;;;;;13.55;5.03;;;16.90;51.10;;;;;;5092904;28;20020;-74
2022/03/21 11:59:35;;;;;;;13.20;5.43;;;17.00;52.20;;;;;;5095863;28;20372;-74
2022/03/21 12:02:10;;;;;;;14.50;6.30;;;17.30;52.60;;;;;;5096923;28;20111;-74
2022/03/21 12:04:37;;;;;;;15.05;6.15;;;17.50;53.80;;;;;;5097173;28;20031;-74
2022/03/21 12:07:12;;;;;;;17.15;6.03;;;17.70;53.30;;;;;;5096795;28;20019;-74
2022/03/21 12:09:43;;;;;;;14.98;6.80;;;17.80;52.90;;;;;;5096551;28;20042;-74
2022/03/21 12:12:12;;;;;;;16.00;5.45;;;18.00;53.60;;;;;;5096642;28;20408;-74
2022/03/21 12:14:45;;;;;;;14.13;5.82;;;18.20;53.20;;;;;;5096486;28;20027;-73
2022/03/21 12:17:11;;;;;;;13.65;6.13;;;18.40;52.30;;;;;;5095250;28;20114;-74
2022/03/21 12:19:54;;;;;;;18.17;6.15;;;18.50;51.40;;;;;;5094989;28;20052;-74
2022/03/21 12:25:13;;;;;;;13.38;5.78;;;18.70;51.20;;;;;;5097564;28;20028;-77
2022/03/21 12:28:16;;;;;;;19.75;5.53;;;18.70;51.60;;;;;;5095018;28;20016;-77
2022/03/21 12:30:42;;;;;;;13.77;5.95;;;18.90;51.50;;;;;;5096585;28;20076;-77
2022/03/21 12:33:12;;;;;;;16.25;6.47;;;19.10;51.50;;;;;;5096247;28;20111;-77
2022/03/21 12:35:44;;;;;;;15.90;6.55;;;19.10;50.70;;;;;;5096638;28;20051;-76
2022/03/21 12:38:20;;;;;;;14.57;5.72;;;19.10;51.00;;;;;;5095061;28;20028;-75
2022/03/21 12:40:52;;;;;;;14.07;6.35;;;19.20;50.90;;;;;;5091681;28;20028;-77
2022/03/21 12:43:25;;;;;;;15.32;6.47;;;19.30;49.80;;;;;;5096317;28;20024;-77
2022/03/21 12:46:09;;;;;;;15.10;5.38;;;19.40;50.80;;;;;;5094556;28;20016;-76
2022/03/21 12:48:37;;;;;;;10.20;5.22;;;19.50;50.60;;;;;;5096097;28;20495;-77
2022/03/21 12:51:04;;;;;;;;;;;19.70;51.20;;;;;;5096284;28;20043;-77
2022/03/21 12:53:46;;;;;;;14.50;4.97;;;19.80;50.60;;;;;;5096082;28;20413;-76
2022/03/21 12:56:17;;;;;;;19.10;6.43;;;19.90;50.60;;;;;;5096216;28;20024;-77
2022/03/21 12:58:47;;;;;;;9.77;4.70;;;20.00;49.30;;;;;;5096023;28;20020;-77
2022/03/21 13:01:13;;;;;;;13.27;5.68;;;19.70;49.40;;;;;;5096810;28;20385;-77
2022/03/21 13:03:40;;;;;;;13.77;5.50;;;19.30;50.20;;;;;;5096496;28;20024;-76